Akron, NY (14001)

2:31 PM EST on February 27, 2017 (GMT -0500)
| | Change Station

Elev -9999 ft 0.00 °N, 0.00 °E | Updated 9 minutes ago

Clear
Clear
°F
Feels Like °F
N
Wind Variable Wind from North
Gusts mph

Today
High -- | Low -- °F
--% Chance of Precip.
Yesterday
High -- | Low -- °F
Precip. -- in
Pressure 30.24 in
Visibility 10.0 miles
Clouds Few 4400 ft
Few 9500 ft
Few 25000 ft
Dew Point Not available.
Humidity Not available.
Rainfall --
Snow Depth Not available.
6:52 AM 6:01 PM
New Moon, 2% visible
METAR KBUF 271854Z 24015KT 10SM FEW044 FEW095 FEW250 07/M04 A3022 RMK AO2 PK WND 23026/1837 SLP239 T00721044
Pressure 30.24 in
Visibility 10.0 miles
Clouds Few 4400 ft
Few 9500 ft
Few 25000 ft
Dew Point Not available.
Humidity Not available.
Rainfall --
Snow Depth Not available.
6:52 AM 6:01 PM
New Moon, 2% visible
METAR KBUF 271854Z 24015KT 10SM FEW044 FEW095 FEW250 07/M04 A3022 RMK AO2 PK WND 23026/1837 SLP239 T00721044

Get Your Daily Forecast Email!

Thanks for signing up!

Be on the lookout for a verification email in your inbox.

You'll start receiving the daily forecast at 8 AM.

×

10-Day Weather Forecast

Almanac

Astronomy

Feb. 27, 2017 Rise Set
Actual Time
Civil Twilight
Nautical Twilight
Astronomical Twilight
Moon
Length of Visible Light
Length of Day
Tomorrow will be .
, % of the Moon is Illuminated

Today's Extremes

State Highs State Lows

Community

WunderPhotos

Upload Photos

1,962,540 photos uploaded!

WunderBlog® & News

Nearby

Air Quality

  Air Quality AQ Index Pollutant
Not available.

Snow Depth

Station Depth Elevation

Earthquake Activity

City Distance Mag. Time & Date
Minimum magnitude displayed is 2.5.

Coastal Water Temperatures

Place Temperature

Stations

Nearby Weather Stations

Station Location Temp. Windchill Dew Point Humidity Wind Precip. Elev Updated Type
                   

Watches & Warnings

There are currently no watches in effect.